Time;durP1;ratioP1;P1;durP2;ratioP2;P2;SDS_P1;SDS_P2;PMS_P1;PMS_P2;Temp;Humidity;BMP_temperature;BMP_pressure;BME280_temperature;BME280_humidity;BME280_pressure;Samples;Min_cycle;Max_cycle;Signal;HPM_P1;HPM_P2
2023/07/22 00:01:13;;;;;;;26.27;13.80;;;;;;;15.27;76.96;101346.44;4930147;29;20055;-53
2023/07/22 00:03:38;;;;;;;24.40;13.38;;;;;;;15.27;77.36;101353.47;4924526;29;20028;-54
2023/07/22 00:06:06;;;;;;;25.20;13.43;;;;;;;15.24;76.64;101350.78;4928830;29;20098;-54
2023/07/22 00:08:32;;;;;;;22.90;13.13;;;;;;;15.22;77.21;101349.88;4931607;29;20459;-54
2023/07/22 00:10:57;;;;;;;22.95;12.32;;;;;;;15.20;77.31;101347.25;4933597;29;20058;-54
2023/07/22 00:13:22;;;;;;;22.40;12.48;;;;;;;15.21;77.46;101353.38;4932407;29;20122;-54
2023/07/22 00:15:48;;;;;;;25.02;13.60;;;;;;;15.22;77.20;101349.88;4933877;29;20024;-54
2023/07/22 00:18:13;;;;;;;26.38;12.90;;;;;;;15.21;75.20;101342.88;4935165;29;20104;-53
2023/07/22 00:20:38;;;;;;;24.40;13.10;;;;;;;15.20;76.81;101347.25;4935327;29;20062;-54
2023/07/22 00:23:04;;;;;;;23.48;13.00;;;;;;;15.19;77.10;101349.84;4932809;29;20037;-54
2023/07/22 00:25:29;;;;;;;23.58;12.98;;;;;;;15.17;76.98;101344.56;4935225;29;20036;-53
2023/07/22 00:27:54;;;;;;;25.98;13.73;;;;;;;15.13;77.34;101340.16;4932932;29;20083;-54
2023/07/22 00:30:19;;;;;;;21.80;12.85;;;;;;;15.12;76.77;101344.53;4934233;29;20249;-54
2023/07/22 00:32:45;;;;;;;22.65;12.85;;;;;;;15.09;77.13;101341.88;4934251;29;20122;-54
2023/07/22 00:35:10;;;;;;;23.98;13.43;;;;;;;15.09;77.41;101344.50;4933884;29;20402;-54
2023/07/22 00:37:35;;;;;;;25.52;13.30;;;;;;;15.07;77.71;101348.81;4933450;29;20048;-54
2023/07/22 00:40:05;;;;;;;26.58;13.55;;;;;;;15.06;77.89;101354.94;4934606;29;20032;-53
2023/07/22 00:42:30;;;;;;;23.88;12.93;;;;;;;15.05;77.90;101347.94;4932528;29;20024;-54
2023/07/22 00:44:56;;;;;;;22.45;12.35;;;;;;;15.07;78.54;101342.69;4931961;29;20459;-54
2023/07/22 00:47:22;;;;;;;23.60;12.80;;;;;;;15.05;78.35;101345.31;4933723;29;20043;-54
2023/07/22 00:49:49;;;;;;;21.85;11.68;;;;;;;15.05;76.71;101334.81;4933532;29;20032;-54
2023/07/22 00:52:14;;;;;;;21.77;12.30;;;;;;;15.05;78.65;101332.19;4932610;29;20047;-53
2023/07/22 00:54:39;;;;;;;24.73;12.38;;;;;;;15.06;78.18;101330.44;4932497;29;20027;-53
2023/07/22 00:57:06;;;;;;;20.05;12.07;;;;;;;15.05;79.05;101331.31;4931350;29;20147;-54
2023/07/22 00:59:32;;;;;;;23.13;12.57;;;;;;;15.05;78.75;101332.19;4934177;29;20031;-54
2023/07/22 01:01:57;;;;;;;23.67;12.25;;;;;;;15.04;79.56;101325.16;4932410;29;20042;-54
2023/07/22 01:04:24;;;;;;;23.33;12.80;;;;;;;15.03;79.53;101331.25;4930807;29;20035;-54
2023/07/22 01:06:52;;;;;;;21.60;12.02;;;;;;;15.04;79.70;101327.78;4928900;29;20114;-54
2023/07/22 01:09:18;;;;;;;21.48;12.15;;;;;;;15.03;79.29;101333.88;4932559;29;20126;-54
2023/07/22 01:11:43;;;;;;;22.48;12.65;;;;;;;15.02;79.20;101333.88;4933913;29;20347;-53
2023/07/22 01:14:09;;;;;;;21.42;12.10;;;;;;;15.03;79.66;101330.41;4931371;29;20059;-54
2023/07/22 01:16:35;;;;;;;21.98;11.25;;;;;;;15.01;79.58;101327.75;4929405;29;20035;-53
2023/07/22 01:19:00;;;;;;;22.52;12.15;;;;;;;14.99;79.07;101323.34;4932056;29;20027;-54
2023/07/22 01:21:26;;;;;;;22.17;11.55;;;;;;;14.97;80.16;101312.81;4932433;29;20584;-54
2023/07/22 01:23:52;;;;;;;22.73;12.02;;;;;;;14.95;79.75;101317.19;4931907;29;20550;-53
2023/07/22 01:26:18;;;;;;;22.15;12.20;;;;;;;14.94;78.23;101320.66;4933644;29;20123;-54
2023/07/22 01:28:43;;;;;;;23.08;12.07;;;;;;;14.95;79.94;101320.69;4931153;29;20052;-54
2023/07/22 01:31:09;;;;;;;21.30;11.82;;;;;;;14.94;79.20;101315.41;4923564;29;20080;-54
2023/07/22 01:33:34;;;;;;;22.80;11.98;;;;;;;14.94;80.61;101325.91;4926026;29;20039;-53
2023/07/22 01:36:00;;;;;;;24.50;11.68;;;;;;;14.94;79.21;101318.03;4932251;29;20028;-54
2023/07/22 01:38:25;;;;;;;23.70;12.18;;;;;;;14.91;79.80;101320.63;4933817;29;20023;-54
2023/07/22 01:40:51;;;;;;;24.45;12.48;;;;;;;14.90;80.77;101308.34;4933911;29;20036;-54
2023/07/22 01:43:16;;;;;;;22.42;12.40;;;;;;;14.90;80.94;101310.97;4930479;29;20483;-54
2023/07/22 01:45:42;;;;;;;22.45;12.57;;;;;;;14.90;80.55;101306.63;4932562;29;20043;-54
2023/07/22 01:48:07;;;;;;;24.92;12.43;;;;;;;14.90;81.03;101300.47;4934370;29;20075;-54
2023/07/22 01:50:33;;;;;;;22.67;12.23;;;;;;;14.91;81.08;101304.88;4934204;29;20031;-54
2023/07/22 01:52:58;;;;;;;22.58;12.57;;;;;;;14.87;79.08;101303.94;4931111;29;20038;-54
2023/07/22 01:55:24;;;;;;;22.17;12.07;;;;;;;14.86;80.87;101301.28;4933635;29;20024;-54
2023/07/22 01:57:49;;;;;;;23.50;12.18;;;;;;;14.81;80.80;101298.63;4933988;29;20614;-53
2023/07/22 02:00:15;;;;;;;21.70;11.85;;;;;;;14.81;80.24;101303.00;4933983;29;20027;-54
2023/07/22 02:02:41;;;;;;;28.48;13.60;;;;;;;14.83;81.43;101303.88;4933914;29;20099;-54
2023/07/22 02:05:08;;;;;;;22.35;12.80;;;;;;;14.80;80.86;101309.09;4933138;29;20442;-54
2023/07/22 02:07:33;;;;;;;23.00;12.88;;;;;;;14.78;80.95;101302.06;4933814;29;20035;-54
2023/07/22 02:09:59;;;;;;;21.10;11.70;;;;;;;14.77;80.81;101300.34;4922297;29;20080;-54
2023/07/22 02:12:24;;;;;;;24.88;13.00;;;;;;;14.77;80.15;101302.97;4933008;29;20516;-54
2023/07/22 02:14:49;;;;;;;24.50;12.93;;;;;;;14.74;80.93;101296.78;4933101;29;20083;-54
2023/07/22 02:17:15;;;;;;;22.73;12.65;;;;;;;14.72;81.40;101291.50;4933145;29;20188;-54
2023/07/22 02:19:40;;;;;;;22.13;12.40;;;;;;;14.71;81.14;101291.50;4931705;29;20379;-54
2023/07/22 02:22:05;;;;;;;23.70;12.68;;;;;;;14.69;80.79;101288.84;4932964;29;20098;-54
2023/07/22 02:24:31;;;;;;;25.38;13.32;;;;;;;14.71;81.72;101288.88;4930734;29;20112;-54
2023/07/22 02:26:56;;;;;;;24.55;13.25;;;;;;;14.72;81.70;101285.38;4927647;29;20024;-54
2023/07/22 02:29:22;;;;;;;21.67;12.52;;;;;;;14.67;80.95;101285.34;4930428;29;20036;-53
2023/07/22 02:31:47;;;;;;;22.67;12.13;;;;;;;14.68;81.64;101292.31;4932526;29;20121;-53
2023/07/22 02:34:12;;;;;;;25.52;13.88;;;;;;;14.64;81.86;101290.50;4931667;29;20032;-54
2023/07/22 02:36:38;;;;;;;25.92;13.27;;;;;;;14.59;82.29;101286.94;4931476;29;20036;-54
2023/07/22 02:39:03;;;;;;;22.23;12.00;;;;;;;14.58;82.22;101290.41;4927066;29;20453;-54
2023/07/22 02:41:29;;;;;;;21.67;12.52;;;;;;;14.60;82.11;101293.94;4932539;29;20557;-54
2023/07/22 02:43:54;;;;;;;22.73;12.10;;;;;;;14.60;81.50;101283.44;4932885;29;20043;-54
2023/07/22 02:46:19;;;;;;;23.73;12.77;;;;;;;14.59;81.76;101282.56;4933125;29;20443;-53
2023/07/22 02:53:55;;;;;;;22.45;12.18;;;;;;;14.50;82.29;101286.81;5269192;23;20115;-54
2023/07/22 02:56:20;;;;;;;22.80;12.65;;;;;;;14.43;82.79;101288.44;4911762;29;20024;-53
2023/07/22 02:58:46;;;;;;;22.88;12.48;;;;;;;14.39;82.70;101286.63;4911098;29;20428;-54
2023/07/22 03:01:11;;;;;;;21.10;11.88;;;;;;;14.36;82.60;101289.22;4913029;29;20032;-54
2023/07/22 03:03:36;;;;;;;23.08;12.65;;;;;;;14.25;83.87;101284.69;4909706;29;20072;-54
2023/07/22 03:06:03;;;;;;;23.77;13.00;;;;;;;14.23;83.56;101288.13;4912487;29;20111;-54
2023/07/22 03:08:29;;;;;;;24.27;12.75;;;;;;;14.20;83.40;101288.09;4911540;29;20040;-54
2023/07/22 03:10:55;;;;;;;20.55;11.95;;;;;;;14.15;82.91;101284.50;4912888;29;20410;-54
2023/07/22 03:13:20;;;;;;;22.88;12.00;;;;;;;14.12;83.50;101289.69;4912757;29;20034;-53
2023/07/22 03:15:45;;;;;;;23.35;12.73;;;;;;;14.08;83.94;101294.88;4908372;29;20114;-54
2023/07/22 03:18:11;;;;;;;24.30;12.73;;;;;;;14.07;84.19;101290.50;4911077;29;20025;-54
2023/07/22 03:20:37;;;;;;;21.65;12.38;;;;;;;14.02;84.46;101297.41;4912189;29;20403;-54
2023/07/22 03:23:03;;;;;;;22.50;11.35;;;;;;;13.99;81.14;101304.31;4912518;29;20059;-54
2023/07/22 03:25:28;;;;;;;23.13;12.88;;;;;;;13.96;84.79;101305.19;4909358;29;20132;-54
2023/07/22 03:27:54;;;;;;;21.00;11.52;;;;;;;13.93;85.30;101310.34;4911762;29;20103;-53
2023/07/22 03:30:22;;;;;;;25.20;12.80;;;;;;;13.91;84.61;101309.44;4912478;29;20032;-54
2023/07/22 03:32:48;;;;;;;21.75;12.32;;;;;;;13.86;84.07;101304.13;4912291;29;20079;-53
2023/07/22 03:35:14;;;;;;;22.83;12.07;;;;;;;13.85;85.50;101307.59;4912800;29;20095;-54
2023/07/22 03:37:40;;;;;;;19.75;11.65;;;;;;;13.78;85.59;101307.47;4911946;29;20635;-53
2023/07/22 03:40:07;;;;;;;22.30;12.02;;;;;;;13.70;86.45;101305.59;4912950;29;20070;-54
2023/07/22 03:42:34;;;;;;;25.88;12.70;;;;;;;13.68;86.67;101312.53;4910313;29;20032;-54
2023/07/22 03:44:59;;;;;;;21.63;11.65;;;;;;;13.68;86.75;101312.53;4913878;29;20047;-54
2023/07/22 03:47:24;;;;;;;24.00;11.60;;;;;;;13.66;86.73;101306.41;4916087;29;20028;-53
2023/07/22 03:49:50;;;;;;;23.15;12.15;;;;;;;13.64;86.80;101308.09;4915540;29;20036;-54
2023/07/22 03:52:18;;;;;;;23.17;11.80;;;;;;;13.61;87.10;101304.53;4914166;29;20036;-54
2023/07/22 03:54:43;;;;;;;19.90;11.27;;;;;;;13.59;86.64;101304.53;4914830;29;20076;-54
2023/07/22 03:57:09;;;;;;;22.45;12.18;;;;;;;13.57;87.47;101303.63;4914757;29;20506;-54
2023/07/22 03:59:34;;;;;;;22.85;11.85;;;;;;;13.55;86.62;101305.31;4914236;29;20036;-54
2023/07/22 04:01:59;;;;;;;21.00;11.65;;;;;;;13.55;87.38;101311.41;4914015;29;20032;-54
2023/07/22 04:04:24;;;;;;;23.35;12.85;;;;;;;13.52;87.41;101318.34;4914376;29;20032;-53
2023/07/22 04:06:50;;;;;;;22.83;11.35;;;;;;;13.48;88.23;101303.44;4915500;29;20063;-54
2023/07/22 04:09:15;;;;;;;23.90;12.40;;;;;;;13.42;88.54;101300.69;4914485;29;20024;-54
2023/07/22 04:11:40;;;;;;;26.35;12.93;;;;;;;13.36;88.80;101297.09;4916491;29;20423;-53
2023/07/22 04:14:05;;;;;;;21.98;11.85;;;;;;;13.36;88.91;101296.22;4916160;29;20134;-54
2023/07/22 04:16:31;;;;;;;21.73;11.48;;;;;;;13.36;88.81;101298.84;4914691;29;20162;-53
2023/07/22 04:18:56;;;;;;;22.65;11.85;;;;;;;13.33;88.63;101296.13;4914522;29;20032;-53
2023/07/22 04:21:21;;;;;;;25.17;12.07;;;;;;;13.32;88.90;101296.97;4914534;29;20039;-53
2023/07/22 04:23:47;;;;;;;22.83;11.75;;;;;;;13.32;88.94;101305.69;4915960;29;20032;-54
2023/07/22 04:26:12;;;;;;;22.02;12.50;;;;;;;13.33;89.47;101310.09;4915722;29;20028;-54
2023/07/22 04:28:37;;;;;;;20.80;11.50;;;;;;;13.34;89.42;101304.06;4914684;29;20490;-53
2023/07/22 04:31:04;;;;;;;23.85;11.82;;;;;;;13.34;87.77;101303.16;4914361;29;20028;-54
2023/07/22 04:33:29;;;;;;;21.48;11.32;;;;;;;13.31;88.65;101303.97;4914710;29;20055;-54
2023/07/22 04:35:57;;;;;;;23.50;12.45;;;;;;;13.29;89.12;101313.50;4916053;29;20032;-54
2023/07/22 04:38:22;;;;;;;21.40;11.68;;;;;;;13.29;90.04;101313.50;4914822;29;20051;-54
2023/07/22 04:40:48;;;;;;;20.15;11.10;;;;;;;13.31;89.73;101314.44;4913259;29;20028;-54
2023/07/22 04:43:13;;;;;;;20.92;10.95;;;;;;;13.30;89.82;101312.66;4914256;29;20024;-54
2023/07/22 04:45:41;;;;;;;23.38;12.20;;;;;;;13.32;89.77;101313.56;4896017;29;20044;-54
2023/07/22 04:48:06;;;;;;;23.13;11.48;;;;;;;13.33;90.24;101306.59;4914862;29;20031;-54
2023/07/22 04:50:32;;;;;;;22.52;11.60;;;;;;;13.32;89.93;101316.16;4914708;29;20032;-53
2023/07/22 04:52:58;;;;;;;20.63;10.73;;;;;;;13.35;89.80;101308.44;4916190;29;20063;-54
2023/07/22 04:55:23;;;;;;;21.10;11.05;;;;;;;13.38;90.22;101316.34;4915753;29;20601;-53
2023/07/22 04:57:48;;;;;;;24.15;12.18;;;;;;;13.38;90.82;101310.22;4916279;29;20040;-53
2023/07/22 05:00:16;;;;;;;22.48;11.30;;;;;;;13.42;90.57;101311.16;4912276;29;20032;-54
2023/07/22 05:02:43;;;;;;;19.83;10.55;;;;;;;13.45;88.92;101311.22;4915551;29;20040;-53
2023/07/22 05:05:09;;;;;;;20.67;11.07;;;;;;;13.50;89.86;101320.06;4915989;29;20039;-54
2023/07/22 05:07:35;;;;;;;20.52;11.40;;;;;;;13.55;90.05;101321.03;4916240;29;20028;-53
2023/07/22 05:10:00;;;;;;;22.80;11.68;;;;;;;13.58;90.48;101328.94;4900608;29;20116;-54
2023/07/22 05:12:26;;;;;;;20.20;10.30;;;;;;;13.61;89.92;101323.75;4915850;29;20438;-53
2023/07/22 05:14:51;;;;;;;20.65;11.38;;;;;;;13.64;90.97;101326.41;4915782;29;20087;-54
2023/07/22 05:17:16;;;;;;;24.25;11.85;;;;;;;13.68;91.66;101324.75;4910652;29;20032;-54
2023/07/22 05:19:42;;;;;;;21.48;11.65;;;;;;;13.73;90.69;101324.00;4915983;29;20103;-54
2023/07/22 05:22:07;;;;;;;21.00;11.05;;;;;;;13.76;90.01;101325.78;4915168;29;20028;-53
2023/07/22 05:24:33;;;;;;;21.38;10.48;;;;;;;13.81;88.58;101325.88;4915384;29;20028;-54
2023/07/22 05:26:58;;;;;;;19.65;10.95;;;;;;;13.86;90.17;101325.09;4912462;29;20055;-53
2023/07/22 05:29:23;;;;;;;21.27;11.23;;;;;;;13.88;89.73;101322.50;4913735;29;20032;-53
2023/07/22 05:31:48;;;;;;;22.92;11.38;;;;;;;13.88;89.82;101318.13;4913639;29;20031;-54
2023/07/22 05:34:14;;;;;;;20.63;11.27;;;;;;;13.91;89.63;101318.19;4914550;29;20083;-53
2023/07/22 05:36:39;;;;;;;21.08;11.10;;;;;;;13.97;88.76;101317.41;4914215;29;20179;-54
2023/07/22 05:39:05;;;;;;;24.77;12.10;;;;;;;13.98;89.68;101319.19;4897066;29;20032;-54
2023/07/22 05:41:32;;;;;;;19.55;11.27;;;;;;;14.06;89.66;101327.16;4914156;29;20032;-54
2023/07/22 05:43:58;;;;;;;20.20;10.77;;;;;;;14.08;88.42;101313.22;4914423;29;20032;-54
2023/07/22 05:46:23;;;;;;;21.98;10.88;;;;;;;14.17;89.30;101315.13;4912653;29;20039;-54
2023/07/22 05:48:48;;;;;;;22.25;11.65;;;;;;;14.24;89.47;101316.13;4912509;29;20063;-53
2023/07/22 05:51:15;;;;;;;23.95;11.82;;;;;;;14.30;88.52;101320.59;4912685;29;20491;-54
2023/07/22 05:53:40;;;;;;;21.50;11.43;;;;;;;14.33;88.60;101324.13;4912404;29;20084;-54
2023/07/22 05:56:06;;;;;;;24.55;11.73;;;;;;;14.37;88.18;101314.56;4913476;29;20051;-52
2023/07/22 05:58:31;;;;;;;24.35;11.45;;;;;;;14.38;88.82;101311.97;4912341;29;20039;-54
2023/07/22 06:01:27;;;;;;;26.27;12.25;;;;;;;14.40;88.67;101307.63;4913342;29;20023;-54
2023/07/22 06:03:53;;;;;;;21.27;11.32;;;;;;;14.46;89.43;101316.47;4912328;29;20024;-53
2023/07/22 06:06:18;;;;;;;20.95;11.50;;;;;;;14.54;88.83;101314.81;4910421;29;20372;-53
2023/07/22 06:08:43;;;;;;;25.13;11.77;;;;;;;14.60;88.51;101312.31;4896898;29;20039;-54
2023/07/22 06:11:09;;;;;;;25.77;11.95;;;;;;;14.69;88.58;101311.59;4914670;29;20028;-54
2023/07/22 06:13:34;;;;;;;23.27;12.30;;;;;;;14.74;88.96;101312.50;4914053;29;20055;-54
2023/07/22 06:15:59;;;;;;;22.65;11.98;;;;;;;14.84;88.79;101313.53;4912715;29;20032;-54
2023/07/22 06:18:25;;;;;;;23.35;12.35;;;;;;;14.90;88.74;101311.88;4914376;29;20028;-54
2023/07/22 06:20:50;;;;;;;23.45;12.00;;;;;;;14.96;87.80;101308.44;4914342;29;20036;-53
2023/07/22 06:23:15;;;;;;;22.88;12.13;;;;;;;15.00;88.26;101307.59;4914671;29;20031;-54
2023/07/22 06:25:41;;;;;;;24.75;11.98;;;;;;;15.06;87.84;101304.19;4911535;29;20112;-54
2023/07/22 06:28:06;;;;;;;24.80;12.75;;;;;;;15.09;88.35;101305.13;4912043;29;20417;-54
2023/07/22 06:30:32;;;;;;;25.48;11.90;;;;;;;15.16;88.42;101305.19;4912739;29;20042;-54
2023/07/22 06:32:57;;;;;;;23.05;12.48;;;;;;;15.22;87.70;101300.00;4911863;29;20075;-54
2023/07/22 06:35:23;;;;;;;23.35;12.30;;;;;;;15.29;88.00;101307.09;4912111;29;20032;-54
2023/07/22 06:37:48;;;;;;;24.13;12.48;;;;;;;15.33;87.99;101303.63;4914527;29;20047;-54
2023/07/22 06:40:13;;;;;;;24.40;12.77;;;;;;;15.35;87.83;101301.94;4914663;29;20036;-54
2023/07/22 06:42:38;;;;;;;25.10;12.73;;;;;;;15.39;87.98;101294.94;4913385;29;21395;-54
2023/07/22 06:45:05;;;;;;;25.42;13.45;;;;;;;15.39;88.01;101290.56;4913945;29;20032;-54
2023/07/22 06:47:30;;;;;;;27.60;13.30;;;;;;;15.42;87.83;101294.97;4913344;29;20040;-54
2023/07/22 06:49:55;;;;;;;27.60;13.18;;;;;;;15.44;88.58;101286.25;4912817;29;20032;-54
2023/07/22 06:52:21;;;;;;;26.45;13.93;;;;;;;15.52;87.97;101286.31;4910335;29;20032;-53
2023/07/22 06:54:46;;;;;;;30.05;14.13;;;;;;;15.58;88.91;101278.53;4893430;29;20139;-54
2023/07/22 06:57:11;;;;;;;26.77;13.55;;;;;;;15.70;88.92;101287.38;4912894;29;20039;-54
2023/07/22 06:59:36;;;;;;;28.08;13.70;;;;;;;15.77;87.45;101287.47;4912264;29;20075;-54
2023/07/22 07:02:04;;;;;;;27.67;14.23;;;;;;;15.87;87.77;101290.19;4913181;29;20104;-54
2023/07/22 07:04:30;;;;;;;24.65;13.27;;;;;;;15.96;88.22;101291.16;4908866;29;20036;-54
2023/07/22 07:06:55;;;;;;;29.42;13.98;;;;;;;16.03;87.02;101288.59;4912301;29;20039;-54
2023/07/22 07:09:21;;;;;;;26.50;14.60;;;;;;;16.13;88.42;101288.69;4912869;29;20107;-54
2023/07/22 07:11:46;;;;;;;27.45;13.68;;;;;;;16.25;86.99;101285.25;4911977;29;20112;-53
2023/07/22 07:14:12;;;;;;;29.60;14.88;;;;;;;16.30;86.92;101286.16;4912045;29;20032;-54
2023/07/22 07:16:38;;;;;;;26.95;14.25;;;;;;;16.36;86.81;101287.94;4913217;29;20020;-54
2023/07/22 07:19:03;;;;;;;24.30;13.60;;;;;;;16.41;86.30;101291.50;4912864;29;20036;-54
2023/07/22 07:21:28;;;;;;;27.52;14.30;;;;;;;16.39;85.96;101301.13;4910247;29;20023;-54
2023/07/22 07:23:54;;;;;;;25.60;13.20;;;;;;;16.42;86.81;101295.00;4916052;29;20028;-54
2023/07/22 07:26:20;;;;;;;31.17;14.00;;;;;;;16.43;85.38;101292.38;4917138;29;20032;-54
2023/07/22 07:28:47;;;;;;;30.13;14.80;;;;;;;16.39;85.93;101289.72;4917615;29;20056;-53
2023/07/22 07:31:12;;;;;;;31.35;14.43;;;;;;;16.39;84.84;101287.97;4914537;29;20037;-54
2023/07/22 07:33:37;;;;;;;28.35;14.48;;;;;;;16.38;86.84;101290.59;4914397;29;20028;-54
2023/07/22 07:36:03;;;;;;;27.67;13.13;;;;;;;16.44;85.69;101291.53;4914931;29;20028;-54
2023/07/22 07:38:29;;;;;;;28.08;13.95;;;;;;;16.50;86.36;101288.94;4908223;29;20388;-54
2023/07/22 07:40:57;;;;;;;32.47;14.52;;;;;;;16.55;87.28;101290.72;4914294;29;20020;-54
2023/07/22 07:43:23;;;;;;;26.35;14.45;;;;;;;16.59;86.56;101281.97;4912839;29;20067;-54
2023/07/22 07:45:48;;;;;;;29.25;14.00;;;;;;;16.69;86.81;101286.41;4915371;29;20055;-54
2023/07/22 07:48:13;;;;;;;29.60;13.85;;;;;;;16.78;85.96;101282.94;4914239;29;20020;-54
2023/07/22 07:50:39;;;;;;;29.83;13.65;;;;;;;16.83;85.78;101282.09;4915633;29;20028;-54
2023/07/22 07:53:04;;;;;;;32.67;14.63;;;;;;;16.85;86.33;101279.47;4915203;29;20079;-54
2023/07/22 07:55:29;;;;;;;28.77;13.60;;;;;;;16.95;86.97;101277.78;4915986;29;20036;-55
2023/07/22 07:57:55;;;;;;;30.42;13.52;;;;;;;17.08;86.64;101281.38;4899317;29;20034;-55
2023/07/22 08:00:21;;;;;;;31.02;14.07;;;;;;;17.18;84.03;101288.41;4912838;29;20409;-54
2023/07/22 08:02:46;;;;;;;28.05;13.43;;;;;;;17.26;83.37;101286.66;4912639;29;20031;-54
2023/07/22 08:05:12;;;;;;;26.17;13.07;;;;;;;17.35;82.00;101289.34;4908020;29;20089;-54
2023/07/22 08:07:38;;;;;;;29.80;13.35;;;;;;;17.32;81.87;101286.72;4910480;29;20376;-54
2023/07/22 08:10:04;;;;;;;25.48;12.57;;;;;;;17.34;80.98;101291.97;4909177;29;20024;-55
2023/07/22 08:12:30;;;;;;;31.52;13.45;;;;;;;17.33;81.66;101290.22;4910956;29;20032;-54
2023/07/22 08:14:56;;;;;;;27.08;13.55;;;;;;;17.36;82.35;101285.81;4911809;29;20455;-53
2023/07/22 08:17:21;;;;;;;26.42;13.00;;;;;;;17.43;82.58;101288.47;4916846;29;20030;-55
2023/07/22 08:19:46;;;;;;;29.85;13.23;;;;;;;17.55;81.57;101288.50;4916756;29;20111;-55
2023/07/22 08:22:12;;;;;;;25.13;12.70;;;;;;;17.61;80.36;101288.53;4914169;29;20123;-55
2023/07/22 08:24:37;;;;;;;31.55;13.43;;;;;;;17.65;79.29;101284.13;4914039;29;20406;-54
2023/07/22 08:27:03;;;;;;;25.65;12.75;;;;;;;17.66;80.75;101285.91;4917028;29;20052;-55
2023/07/22 08:29:28;;;;;;;28.10;12.80;;;;;;;17.69;79.77;101292.03;4913473;29;20376;-55
2023/07/22 08:31:53;;;;;;;31.15;13.38;;;;;;;17.74;79.39;101302.56;4915212;29;20029;-54
2023/07/22 08:34:19;;;;;;;25.23;12.32;;;;;;;17.76;79.18;101299.97;4914150;29;20024;-54
2023/07/22 08:36:44;;;;;;;25.33;12.40;;;;;;;17.82;78.22;101287.66;4916464;29;20024;-54
2023/07/22 08:39:09;;;;;;;23.10;12.38;;;;;;;17.91;78.09;101292.09;4915793;29;20487;-54
2023/07/22 08:41:36;;;;;;;31.05;12.55;;;;;;;18.07;77.65;101293.88;4913113;29;20056;-54
2023/07/22 08:44:04;;;;;;;24.33;10.68;;;;;;;18.26;76.90;101285.91;4915315;29;20032;-55
2023/07/22 08:46:32;;;;;;;23.23;11.23;;;;;;;18.44;76.91;101287.66;4916409;29;20126;-55
2023/07/22 08:49:00;;;;;;;23.70;11.80;;;;;;;18.60;74.65;101284.09;4915619;29;20459;-54
2023/07/22 08:51:28;;;;;;;21.42;10.55;;;;;;;18.78;74.47;101292.84;4911715;29;20495;-55
2023/07/22 08:53:56;;;;;;;19.90;11.07;;;;;;;18.97;73.45;101291.03;4914131;29;20100;-54
2023/07/22 08:56:25;;;;;;;23.17;10.32;;;;;;;19.18;74.33;101287.44;4915541;29;20016;-55
2023/07/22 08:58:52;;;;;;;22.27;10.32;;;;;;;19.28;71.01;101289.16;4912974;29;20518;-53
2023/07/22 09:01:18;;;;;;;24.30;10.50;;;;;;;19.41;69.64;101289.97;4915571;29;20071;-55
2023/07/22 09:03:44;;;;;;;24.85;11.60;;;;;;;19.48;71.66;101285.53;4914627;29;20514;-55
2023/07/22 09:06:10;;;;;;;20.20;10.30;;;;;;;19.67;70.78;101288.91;4912965;29;20505;-55
2023/07/22 09:08:35;;;;;;;24.00;11.32;;;;;;;19.62;69.13;101294.25;4914442;29;20063;-55
2023/07/22 09:11:01;;;;;;;20.67;9.85;;;;;;;19.60;68.89;101288.06;4913916;29;20040;-55
2023/07/22 09:13:28;;;;;;;21.42;9.05;;;;;;;19.51;67.12;101296.06;4914454;29;20052;-55
2023/07/22 09:15:56;;;;;;;23.08;10.15;;;;;;;19.59;70.78;101296.00;4908263;29;20032;-55
2023/07/22 09:18:21;;;;;;;22.03;10.17;;;;;;;19.62;67.83;101288.06;4915261;29;20031;-56
2023/07/22 09:20:47;;;;;;;20.15;10.52;;;;;;;19.60;68.40;101290.72;4911670;29;20874;-55
2023/07/22 09:23:13;;;;;;;21.58;10.20;;;;;;;19.73;69.56;101288.00;4914615;29;20035;-55
2023/07/22 09:25:41;;;;;;;19.15;9.63;;;;;;;19.85;67.24;101289.69;4911609;29;20028;-55
2023/07/22 09:28:06;;;;;;;21.70;9.88;;;;;;;19.94;68.15;101285.22;4913276;29;20119;-55
2023/07/22 09:30:38;;;;;;;23.00;9.45;;;;;;;19.99;68.22;101282.53;4910794;29;20478;-55
2023/07/22 09:33:04;;;;;;;18.40;9.35;;;;;;;20.03;68.03;101280.72;4914809;29;20024;-54
2023/07/22 09:35:43;;;;;;;19.70;9.90;;;;;;;19.94;68.63;101285.22;4912110;29;20040;-55
2023/07/22 09:38:08;;;;;;;19.05;9.70;;;;;;;19.93;67.68;101285.25;4915301;29;20066;-55
2023/07/22 09:40:34;;;;;;;18.75;9.00;;;;;;;19.97;69.74;101276.34;4912672;29;20059;-56
2023/07/22 09:43:02;;;;;;;18.00;9.30;;;;;;;19.95;67.28;101281.66;4908809;29;20103;-55
2023/07/22 09:45:31;;;;;;;17.50;9.25;;;;;;;20.05;66.01;101281.59;4914341;29;20036;-55
2023/07/22 09:47:57;;;;;;;19.50;9.00;;;;;;;19.95;67.05;101279.03;4914757;29;20036;-55
2023/07/22 09:50:24;;;;;;;16.20;8.60;;;;;;;19.98;65.89;101286.06;4913058;29;20048;-55
2023/07/22 09:52:55;;;;;;;16.05;8.55;;;;;;;19.85;65.90;101279.13;4913559;29;20032;-54
2023/07/22 09:55:22;;;;;;;18.60;9.15;;;;;;;19.86;67.08;101271.19;4913353;29;20028;-55
2023/07/22 09:57:54;;;;;;;16.80;8.73;;;;;;;19.91;67.42;101272.00;4912725;29;20024;-56
2023/07/22 10:00:20;;;;;;;17.90;9.18;;;;;;;19.85;67.03;101265.91;4910458;29;20067;-55
2023/07/22 10:02:49;;;;;;;19.10;8.30;;;;;;;19.80;67.83;101264.16;4909611;29;20487;-55
2023/07/22 10:05:16;;;;;;;18.13;8.07;;;;;;;19.84;67.69;101264.13;4910521;29;20528;-55
2023/07/22 10:07:56;;;;;;;20.42;9.25;;;;;;;19.82;68.23;101269.44;4908109;29;20024;-55
2023/07/22 10:10:25;;;;;;;14.00;7.53;;;;;;;19.82;66.90;101277.38;4914697;29;20521;-55
2023/07/22 10:12:50;;;;;;;15.38;7.85;;;;;;;19.83;67.54;101267.66;4914688;29;20032;-55
2023/07/22 10:15:19;;;;;;;16.85;7.25;;;;;;;19.82;66.58;101273.88;4913921;29;20083;-55
2023/07/22 10:17:45;;;;;;;15.95;7.57;;;;;;;19.91;67.84;101279.94;4914757;29;20479;-55
2023/07/22 10:20:16;;;;;;;18.75;7.88;;;;;;;20.07;67.92;101269.22;4913775;29;20043;-56
2023/07/22 10:22:44;;;;;;;18.60;7.40;;;;;;;20.19;68.92;101287.66;4913580;29;20119;-55
2023/07/22 10:25:12;;;;;;;16.25;8.48;;;;;;;20.23;66.89;101272.59;4912561;29;20036;-55
2023/07/22 10:27:39;;;;;;;13.90;7.82;;;;;;;20.27;65.29;101267.25;4912827;29;20058;-56
2023/07/22 10:30:05;;;;;;;13.82;7.03;;;;;;;20.32;65.04;101275.19;4911175;29;20048;-56
2023/07/22 10:32:38;;;;;;;14.02;7.00;;;;;;;20.32;65.53;101270.75;4913318;29;20039;-55
2023/07/22 10:35:04;;;;;;;14.50;6.47;;;;;;;20.45;62.89;101273.25;4906935;29;20111;-55
2023/07/22 10:37:33;;;;;;;13.80;5.85;;;;;;;20.46;63.59;101277.66;4911707;29;20091;-55
2023/07/22 10:40:19;;;;;;;15.60;5.63;;;;;;;20.54;60.71;101281.13;4903800;29;20036;-55
2023/07/22 10:43:11;;;;;;;9.32;4.63;;;;;;;20.42;60.98;101266.25;4912575;29;20032;-56
2023/07/22 10:45:41;;;;;;;7.97;4.68;;;;;;;20.40;61.64;101273.31;4910666;29;20051;-56
2023/07/22 10:48:09;;;;;;;12.52;5.22;;;;;;;20.46;61.89;101272.38;4906886;29;20170;-55
2023/07/22 10:50:48;;;;;;;10.52;5.20;;;;;;;20.61;61.74;101255.44;4909332;29;20050;-56
2023/07/22 10:53:26;;;;;;;8.30;4.55;;;;;;;20.79;60.42;101255.25;4904912;29;20080;-55
2023/07/22 10:56:24;;;;;;;7.43;4.40;;;;;;;20.89;60.68;101248.06;4895806;29;20028;-55
2023/07/22 10:58:50;;;;;;;7.28;4.15;;;;;;;20.94;59.95;101246.25;4908520;29;20621;-56
2023/07/22 11:01:24;;;;;;;7.83;4.03;;;;;;;20.93;59.49;101256.84;4913885;29;20705;-56
2023/07/22 11:04:20;;;;;;;8.57;4.03;;;;;;;20.98;58.98;101257.69;4899761;29;20775;-55
2023/07/22 11:06:49;;;;;;;6.70;3.42;;;;;;;21.10;56.19;101272.53;4905561;29;20040;-56
2023/07/22 11:09:26;;;;;;;10.93;3.60;;;;;;;21.13;57.30;101264.53;4914161;29;20063;-55
2023/07/22 11:12:03;;;;;;;7.25;3.45;;;;;;;21.14;55.99;101261.00;4914221;29;20051;-56
2023/07/22 11:14:31;;;;;;;7.80;3.33;;;;;;;21.06;55.03;101262.88;4906176;29;20765;-56